Dover, Missouri
Current Conditions -  °F | °C
As of 9:15 AM on Friday 19 Dec 2014 (Local Time) from KRCM Reporting Station
Haze Haze  
Wind Chill:   Ceiling: 400
Heat Index:   Visibility: 3mi
Dew Point:   Wind: 3mph
Humidity: 100%   Direction: 70°ENE
Pressure: 30.28"   Gusts: NA
Location:  39.19°N, 93.69°W
Report Text: KRCM 191515Z AUTO 07003KT 3SM BR OVC004 00/00 A3028 RMK AO2
Loading
Personal Weather Stations






























Interactive Weather Map New forecast layout! Learn more

10-Day Weather Forecast

Advertisements
Track Severe Weather on mobile